createdAt,value
2018-01-19T00:00:33.144Z,82.4
2018-01-19T00:01:25.294Z,82.31
2018-01-19T00:02:17.250Z,82.21
2018-01-19T00:03:00.666Z,81.65
2018-01-19T00:03:41.001Z,82.12
2018-01-19T00:04:21.509Z,82.31
2018-01-19T00:05:01.932Z,82.69
2018-01-19T00:05:42.243Z,82.69
2018-01-19T00:06:22.618Z,82.21
2018-01-19T00:07:03.029Z,82.78
2018-01-19T00:07:43.432Z,82.78
2018-01-19T00:08:23.814Z,83.36
2018-01-19T00:09:04.207Z,82.4
2018-01-19T00:09:44.595Z,82.78
2018-01-19T00:10:24.988Z,82.78
2018-01-19T00:11:05.471Z,82.12
2018-01-19T00:11:45.817Z,82.78
2018-01-19T00:12:26.185Z,82.97
2018-01-19T00:13:06.563Z,82.88
2018-01-19T00:13:46.954Z,83.16
2018-01-19T00:14:27.366Z,83.54
2018-01-19T00:15:07.733Z,83.73
2018-01-19T00:15:48.100Z,83.54
2018-01-19T00:16:28.509Z,83.45
2018-01-19T00:17:08.935Z,82.69
2018-01-19T00:17:49.354Z,83.45
2018-01-19T00:18:29.713Z,82.97
2018-01-19T00:19:10.129Z,83.64
2018-01-19T00:19:50.512Z,83.92
2018-01-19T00:20:30.960Z,83.36
2018-01-19T00:21:11.385Z,83.64
2018-01-19T00:21:51.760Z,83.83
2018-01-19T00:22:32.167Z,83.54
2018-01-19T00:23:12.554Z,83.64
2018-01-19T00:23:53.005Z,83.54
2018-01-19T00:24:33.373Z,83.16
2018-01-19T00:25:13.734Z,83.07
2018-01-19T00:25:54.132Z,82.88
2018-01-19T00:26:34.555Z,83.16
2018-01-19T00:27:14.916Z,83.07
2018-01-19T00:27:55.292Z,83.83
2018-01-19T00:28:35.654Z,83.36
2018-01-19T00:29:16.097Z,83.07
2018-01-19T00:29:56.469Z,82.69
2018-01-19T00:30:36.891Z,82.78
2018-01-19T00:31:17.280Z,83.54
2018-01-19T00:31:57.694Z,83.64
2018-01-19T00:32:38.097Z,83.92
2018-01-19T00:33:18.522Z,82.78
2018-01-19T00:33:58.887Z,83.26
2018-01-19T00:34:39.282Z,82.88
2018-01-19T00:35:19.684Z,83.26
2018-01-19T00:36:00.094Z,83.73
2018-01-19T00:36:40.407Z,83.92
2018-01-19T00:37:20.912Z,83.92
2018-01-19T00:38:01.278Z,83.54
2018-01-19T00:38:41.647Z,83.2
2018-01-19T00:39:22.057Z,82.45
2018-01-19T00:40:02.392Z,82.35
2018-01-19T00:40:42.832Z,82.45
2018-01-19T00:41:23.220Z,81.21
2018-01-19T00:42:03.625Z,81.21
2018-01-19T00:42:44.041Z,81.4
2018-01-19T00:43:24.421Z,81.3
2018-01-19T00:44:04.782Z,81.02
2018-01-19T00:44:45.220Z,80.45
2018-01-19T00:45:25.622Z,80.64
2018-01-19T00:46:06.022Z,81.21
2018-01-19T00:46:46.435Z,81.59
2018-01-19T00:47:26.858Z,81.21
2018-01-19T00:48:07.232Z,80.74
2018-01-19T00:48:47.603Z,80.93
2018-01-19T00:49:28.010Z,81.3
2018-01-19T00:50:08.368Z,80.74
2018-01-19T00:50:48.821Z,80.16
2018-01-19T00:51:29.186Z,80.35
2018-01-19T00:52:09.495Z,80.6
2018-01-19T00:52:49.900Z,80.79
2018-01-19T00:53:30.379Z,81.07
2018-01-19T00:54:10.738Z,80.98
2018-01-19T00:54:51.123Z,81.84
2018-01-19T00:55:31.547Z,81.74
2018-01-19T00:56:11.909Z,81.55
2018-01-19T00:56:52.308Z,81.74
2018-01-19T00:57:32.745Z,82.31
2018-01-19T00:58:13.097Z,81.07
2018-01-19T00:58:53.566Z,81.17
2018-01-19T00:59:33.919Z,81.26
2018-01-19T01:00:14.343Z,81.4
2018-01-19T01:00:54.694Z,80.55
2018-01-19T01:01:35.105Z,80.6
2018-01-19T01:02:15.477Z,80.88
2018-01-19T01:02:55.852Z,80.6
2018-01-19T01:03:36.285Z,80.98
2018-01-19T01:04:16.694Z,81.07
2018-01-19T01:04:57.100Z,81.26
2018-01-19T01:05:37.522Z,80.79
2018-01-19T01:06:17.902Z,81.36
2018-01-19T01:06:58.263Z,81.17
2018-01-19T01:07:38.747Z,81.36
2018-01-19T01:08:19.108Z,81.17
2018-01-19T01:08:59.514Z,81.36
2018-01-19T01:09:39.930Z,81.84
2018-01-19T01:10:20.306Z,80.98
2018-01-19T01:11:00.671Z,80.69
2018-01-19T01:11:41.086Z,80.69
2018-01-19T01:12:21.431Z,80.41
2018-01-19T01:13:01.847Z,81.55
2018-01-19T01:13:42.236Z,81.17
2018-01-19T01:14:22.698Z,81.07
2018-01-19T01:15:03.084Z,81.74
2018-01-19T01:15:43.466Z,82.03
2018-01-19T01:16:23.905Z,81.84
2018-01-19T01:17:04.293Z,81.65
2018-01-19T01:17:44.667Z,81.36
2018-01-19T01:18:25.086Z,82.03
2018-01-19T01:19:05.454Z,81.65
2018-01-19T01:19:45.851Z,81.84
2018-01-19T01:20:26.268Z,81.07
2018-01-19T01:21:06.664Z,81.45
2018-01-19T01:21:47.065Z,81.21
2018-01-19T01:22:27.539Z,80.93
2018-01-19T01:23:07.872Z,80.64
2018-01-19T01:23:48.334Z,81.12
2018-01-19T01:24:28.669Z,81.02
2018-01-19T01:25:09.088Z,80.35
2018-01-19T01:25:49.488Z,80.64
2018-01-19T01:26:29.896Z,80.64
2018-01-19T01:27:10.350Z,80.07
2018-01-19T01:27:50.766Z,80.45
2018-01-19T01:28:31.090Z,80.93
2018-01-19T01:29:11.443Z,80.83
2018-01-19T01:29:51.862Z,79.88
2018-01-19T01:30:32.291Z,80.35
2018-01-19T01:31:12.704Z,80.83
2018-01-19T01:31:53.101Z,80.45
2018-01-19T01:32:33.499Z,79.88
2018-01-19T01:33:13.887Z,79.6
2018-01-19T01:33:54.311Z,80.83
2018-01-19T01:34:34.740Z,80.07
2018-01-19T01:35:15.090Z,79.97
2018-01-19T01:35:55.511Z,80.26
2018-01-19T01:36:35.911Z,80.16
2018-01-19T01:37:16.296Z,79.88
2018-01-19T01:37:56.659Z,79.79
2018-01-19T01:38:37.139Z,79.63
2018-01-19T01:39:17.505Z,78.45
2018-01-19T01:39:57.907Z,78.93
2018-01-19T01:40:38.287Z,79.03
2018-01-19T01:41:18.687Z,79.79
2018-01-19T01:41:59.150Z,79.22
2018-01-19T01:42:39.517Z,79.41
2018-01-19T01:43:19.903Z,79.6
2018-01-19T01:44:00.298Z,80.02
2018-01-19T01:44:40.736Z,80.02
2018-01-19T01:45:21.107Z,80.02
2018-01-19T01:46:01.595Z,79.25
2018-01-19T01:46:41.923Z,79.06
2018-01-19T01:47:22.406Z,78.4
2018-01-19T01:48:02.773Z,78.5
2018-01-19T01:48:43.198Z,78.97
2018-01-19T01:49:23.638Z,78.4
2018-01-19T01:50:03.980Z,78.64
2018-01-19T01:50:44.391Z,79.5
2018-01-19T01:51:24.756Z,79.97
2018-01-19T01:52:05.237Z,80.16
2018-01-19T01:52:45.605Z,79.97
2018-01-19T01:53:25.942Z,80.26
2018-01-19T01:54:06.327Z,80.55
2018-01-19T01:54:46.730Z,79.97
2018-01-19T01:55:27.142Z,80.35
2018-01-19T01:56:07.510Z,79.88
2018-01-19T01:56:47.964Z,79.79
2018-01-19T01:57:28.363Z,80.83
2018-01-19T01:58:08.730Z,81.02
2018-01-19T01:58:49.161Z,80.35
2018-01-19T01:59:29.499Z,80.35
2018-01-19T02:00:09.919Z,80.16
2018-01-19T02:00:50.304Z,79.97
2018-01-19T02:01:30.708Z,79.88
2018-01-19T02:02:11.149Z,80.21
2018-01-19T02:02:51.479Z,79.63
2018-01-19T02:03:31.918Z,79.25
2018-01-19T02:04:12.296Z,79.44
2018-01-19T02:04:52.724Z,79.06
2018-01-19T02:05:33.157Z,79.6
2018-01-19T02:06:13.514Z,79.06
2018-01-19T02:06:53.912Z,78.97
2018-01-19T02:07:34.339Z,79.06
2018-01-19T02:08:14.731Z,79.06
2018-01-19T02:08:55.218Z,78.88
2018-01-19T02:09:35.550Z,78.3
2018-01-19T02:10:15.981Z,78.21
2018-01-19T02:10:56.401Z,78.97
2018-01-19T02:11:36.855Z,78.69
2018-01-19T02:12:17.210Z,78.3
2018-01-19T02:12:57.701Z,78.02
2018-01-19T02:13:38.028Z,78.59
2018-01-19T02:14:18.410Z,78.4
2018-01-19T02:14:58.789Z,78.4
2018-01-19T02:15:39.173Z,78.3
2018-01-19T02:16:19.647Z,78.4
2018-01-19T02:17:00.053Z,78.21
2018-01-19T02:17:40.460Z,78.59
2018-01-19T02:18:20.880Z,78.4
2018-01-19T02:19:01.282Z,78.4
2018-01-19T02:19:41.678Z,78.3
2018-01-19T02:20:22.034Z,77.55
2018-01-19T02:21:02.455Z,78.3
2018-01-19T02:21:42.877Z,78.4
2018-01-19T02:22:23.257Z,78.4
2018-01-19T02:23:03.652Z,78.4
2018-01-19T02:23:44.109Z,78.4
2018-01-19T02:24:24.463Z,77.73
2018-01-19T02:25:04.849Z,77.36
2018-01-19T02:25:45.249Z,77.36
2018-01-19T02:26:25.613Z,78.21
2018-01-19T02:27:05.993Z,78.4
2018-01-19T02:27:46.406Z,78.4
2018-01-19T02:28:26.999Z,78.88
2018-01-19T02:29:07.283Z,78.4
2018-01-19T02:29:47.673Z,77.36
2018-01-19T02:30:28.019Z,78.11
2018-01-19T02:31:08.441Z,78.02
2018-01-19T02:31:48.820Z,78.59
2018-01-19T02:32:29.300Z,78.4
2018-01-19T02:33:09.689Z,78.97
2018-01-19T02:33:50.157Z,78.21
2018-01-19T02:34:30.505Z,78.11
2018-01-19T02:35:10.893Z,78.36
2018-01-19T02:35:51.280Z,78.93
2018-01-19T02:36:31.741Z,78.36
2018-01-19T02:37:12.194Z,78.17
2018-01-19T02:37:52.554Z,78.36
2018-01-19T02:38:32.970Z,78.4
2018-01-19T02:39:13.361Z,78.36
2018-01-19T02:39:53.830Z,78.36
2018-01-19T02:40:34.179Z,78.59
2018-01-19T02:41:14.657Z,78.21
2018-01-19T02:41:54.974Z,78.4
2018-01-19T02:42:35.448Z,78.4
2018-01-19T02:43:15.874Z,78.88
2018-01-19T02:43:56.266Z,78.78
2018-01-19T02:44:36.666Z,78.36
2018-01-19T02:45:17.081Z,78.83
2018-01-19T02:45:57.486Z,78.64
2018-01-19T02:46:37.917Z,79.03
2018-01-19T02:47:18.265Z,79.22
2018-01-19T02:47:58.703Z,78.93
2018-01-19T02:48:39.097Z,78.93
2018-01-19T02:49:19.538Z,78.93
2018-01-19T02:49:59.892Z,78.97
2018-01-19T02:50:40.350Z,78.59
2018-01-19T02:51:20.769Z,78.78
2018-01-19T02:52:01.128Z,78.97
2018-01-19T02:52:41.544Z,78.69
2018-01-19T02:53:21.923Z,78.3
2018-01-19T02:54:02.418Z,78.4
2018-01-19T02:54:42.776Z,78.3
2018-01-19T02:55:23.199Z,78.4
2018-01-19T02:56:03.541Z,77.92
2018-01-19T02:56:43.978Z,77.83
2018-01-19T02:57:24.363Z,77.73
2018-01-19T02:58:04.746Z,78.02
2018-01-19T02:58:45.115Z,77.83
2018-01-19T02:59:25.559Z,77.92
2018-01-19T03:00:05.936Z,78.59
2018-01-19T03:00:46.313Z,77.92
2018-01-19T03:01:26.719Z,77.73
2018-01-19T03:02:07.133Z,78.02
2018-01-19T03:02:47.530Z,77.64
2018-01-19T03:03:27.997Z,77.2
2018-01-19T03:04:08.363Z,76.44
2018-01-19T03:04:48.755Z,76.54
2018-01-19T03:05:29.160Z,76.25
2018-01-19T03:06:09.586Z,76.25
2018-01-19T03:06:49.925Z,75.96
2018-01-19T03:07:30.301Z,76.16
2018-01-19T03:08:10.732Z,75.87
2018-01-19T03:08:51.149Z,76.35
2018-01-19T03:09:31.587Z,77.11
2018-01-19T03:10:11.942Z,76.35
2018-01-19T03:10:52.337Z,76.54
2018-01-19T03:11:32.786Z,76.35
2018-01-19T03:12:13.185Z,76.92
2018-01-19T03:12:53.622Z,77.01
2018-01-19T03:13:34.013Z,76.63
2018-01-19T03:14:14.346Z,76.25
2018-01-19T03:14:54.802Z,76.31
2018-01-19T03:15:35.932Z,77.17
2018-01-19T03:16:16.466Z,77.73
2018-01-19T03:16:56.769Z,78.3
2018-01-19T03:17:37.222Z,77.92
2018-01-19T03:18:17.784Z,78.5
2018-01-19T03:18:58.129Z,78.69
2018-01-19T03:19:38.588Z,78.4
2018-01-19T03:20:18.953Z,78.97
2018-01-19T03:20:59.373Z,78.69
2018-01-19T03:21:39.747Z,78.97
2018-01-19T03:22:20.229Z,79.06
2018-01-19T03:23:00.622Z,78.4
2018-01-19T03:23:40.979Z,78.4
2018-01-19T03:24:21.404Z,78.78
2018-01-19T03:25:01.799Z,78.11
2018-01-19T03:25:42.320Z,78.4
2018-01-19T03:26:22.647Z,78.88
2018-01-19T03:27:02.987Z,78.78
2018-01-19T03:27:43.428Z,78.11
2018-01-19T03:28:23.870Z,78.88
2018-01-19T03:29:04.335Z,79.22
2018-01-19T03:29:44.693Z,79.41
2018-01-19T03:30:25.123Z,80.26
2018-01-19T03:31:05.531Z,80.16
2018-01-19T03:31:45.916Z,79.79
2018-01-19T03:32:26.235Z,79.88
2018-01-19T03:33:06.640Z,80.16
2018-01-19T03:33:47.082Z,80.93
2018-01-19T03:34:28.037Z,80.45
2018-01-19T03:35:08.359Z,80.45
2018-01-19T03:35:48.769Z,80.07
2018-01-19T03:36:29.189Z,80.07
2018-01-19T03:37:09.603Z,80.45
2018-01-19T03:37:50.027Z,80.74
2018-01-19T03:38:30.472Z,80.64
2018-01-19T03:39:10.803Z,80.07
2018-01-19T03:39:51.249Z,80.16
2018-01-19T03:40:31.643Z,79.25
2018-01-19T03:41:12.032Z,79.16
2018-01-19T03:41:52.387Z,79.54
2018-01-19T03:42:32.824Z,79.06
2018-01-19T03:43:13.307Z,78.88
2018-01-19T03:43:53.713Z,78.69
2018-01-19T03:44:34.045Z,78.88
2018-01-19T03:45:14.495Z,79.06
2018-01-19T03:45:54.880Z,79.06
2018-01-19T03:46:35.284Z,78.69
2018-01-19T03:47:15.681Z,79.06
2018-01-19T03:47:56.090Z,79.54
2018-01-19T03:48:36.545Z,78.78
2018-01-19T03:49:16.915Z,78.3
2018-01-19T03:49:57.322Z,78.4
2018-01-19T03:50:37.661Z,78.97
2018-01-19T03:51:18.105Z,79.06
2018-01-19T03:51:58.546Z,79.54
2018-01-19T03:52:38.898Z,79.06
2018-01-19T03:53:19.301Z,79.25
2018-01-19T03:53:59.664Z,79.35
2018-01-19T03:54:40.108Z,79.44
2018-01-19T03:55:20.486Z,80.11
2018-01-19T03:56:00.831Z,79.06
2018-01-19T03:56:41.319Z,78.97
2018-01-19T03:57:21.663Z,79.35
2018-01-19T03:58:02.112Z,79.63
2018-01-19T03:58:42.495Z,79.35
2018-01-19T03:59:22.952Z,78.78
2018-01-19T04:00:03.330Z,78.97
2018-01-19T04:00:43.652Z,79.44
2018-01-19T04:01:24.283Z,79.06
2018-01-19T04:02:04.769Z,78.4
2018-01-19T04:02:45.191Z,79.25
2018-01-19T04:03:25.586Z,79.63
2018-01-19T04:04:05.964Z,79.25
2018-01-19T04:41:31.610Z,80.83
2018-01-19T04:42:12.496Z,80.93
2018-01-19T04:42:52.611Z,81.06
2018-01-19T04:43:33.061Z,79.97
2018-01-19T04:45:58.301Z,79.44
2018-01-19T04:46:47.644Z,79.73
2018-01-19T04:47:28.288Z,79.63
2018-01-19T04:48:08.698Z,79.83
2018-01-19T04:48:49.078Z,79.41
2018-01-19T04:49:29.485Z,79.54
2018-01-19T04:50:09.937Z,80.02
2018-01-19T04:50:50.320Z,79.16
2018-01-19T04:51:30.756Z,78.97
2018-01-19T04:52:11.115Z,78.88
2018-01-19T04:52:51.498Z,78.78
2018-01-19T04:53:31.922Z,79.44
2018-01-19T04:54:12.387Z,79.73
2018-01-19T04:54:52.786Z,80.4
2018-01-19T04:55:33.359Z,80.02
2018-01-19T04:56:13.782Z,80.4
2018-01-19T04:56:54.153Z,79.54
2018-01-19T04:57:34.625Z,80.58
2018-01-19T04:58:14.921Z,80.02
2018-01-19T04:58:55.383Z,79.92
2018-01-19T04:59:35.797Z,79.35
2018-01-19T05:00:16.261Z,78.88
2018-01-19T05:00:56.835Z,79.06
2018-01-19T05:01:37.234Z,79.06
2018-01-19T05:02:17.707Z,78.97
2018-01-19T05:02:58.055Z,78.4
2018-01-19T05:03:38.508Z,78.97
2018-01-19T05:04:18.938Z,78.4
2018-01-19T05:05:00.501Z,78.69
2018-01-19T05:05:40.117Z,78.97
2018-01-19T05:06:21.400Z,78.88
2018-01-19T05:07:01.818Z,79.06
2018-01-19T05:07:42.220Z,78.5
2018-01-19T05:08:22.602Z,78.97
2018-01-19T05:09:03.020Z,78.88
2018-01-19T05:09:43.506Z,78.5
2018-01-19T05:10:23.885Z,78.69
2018-01-19T05:11:04.298Z,79.16
2018-01-19T05:11:44.680Z,79.63
2018-01-19T05:12:25.268Z,79.54
2018-01-19T05:13:05.665Z,79.25
2018-01-19T05:13:46.204Z,79.25
2018-01-19T05:14:26.553Z,78.4
2018-01-19T05:15:06.923Z,78.11
2018-01-19T05:15:47.354Z,77.92
2018-01-19T05:16:27.729Z,78.21
2018-01-19T05:17:08.174Z,78.02
2018-01-19T05:17:48.575Z,77.83
2018-01-19T05:18:46.759Z,77.17
2018-01-19T05:19:27.135Z,77.73
2018-01-19T05:20:07.492Z,78.11
2018-01-19T05:20:47.954Z,78.5
2018-01-19T05:21:28.274Z,78.69
2018-01-19T05:22:08.719Z,78.4
2018-01-19T05:22:49.129Z,78.11
2018-01-19T05:23:29.540Z,78.5
2018-01-19T05:24:09.875Z,78.59
2018-01-19T05:24:50.318Z,78.4
2018-01-19T05:25:30.751Z,78.4
2018-01-19T05:26:11.101Z,78.21
2018-01-19T05:26:51.473Z,78.11
2018-01-19T05:27:31.949Z,77.83
2018-01-19T05:28:12.330Z,77.92
2018-01-19T05:28:52.776Z,78.5
2018-01-19T05:29:33.202Z,78.3
2018-01-19T05:30:13.606Z,77.83
2018-01-19T05:30:53.949Z,79.06
2018-01-19T05:31:34.451Z,78.3
2018-01-19T05:32:14.776Z,77.73
2018-01-19T05:32:55.219Z,78.4
2018-01-19T05:33:35.588Z,78.88
2018-01-19T05:34:16.019Z,78.4
2018-01-19T05:34:56.426Z,78.45
2018-01-19T05:35:36.866Z,78.97
2018-01-19T05:36:17.257Z,78.4
2018-01-19T05:36:57.693Z,78.69
2018-01-19T05:37:38.053Z,78.4
2018-01-19T05:38:18.885Z,78.69
2018-01-19T05:38:59.334Z,78.4
2018-01-19T05:39:39.650Z,78.97
2018-01-19T05:40:20.159Z,78.88
2018-01-19T05:41:00.567Z,78.21
2018-01-19T05:41:40.922Z,78.21
2018-01-19T05:42:21.358Z,78.97
2018-01-19T05:43:01.715Z,78.21
2018-01-19T05:43:42.185Z,78.69
2018-01-19T05:44:22.565Z,78.97
2018-01-19T05:45:02.981Z,78.59
2018-01-19T05:45:43.343Z,78.5
2018-01-19T05:46:23.839Z,78.97
2018-01-19T05:47:04.110Z,78.5
2018-01-19T05:47:44.662Z,78.88
2018-01-19T05:48:24.916Z,78.4
2018-01-19T05:49:05.412Z,78.97
2018-01-19T05:49:45.951Z,79.06
2018-01-19T05:50:26.311Z,78.02
2018-01-19T05:51:06.665Z,78.4
2018-01-19T05:51:47.130Z,78.97
2018-01-19T05:52:28.419Z,78.69
2018-01-19T05:53:08.906Z,78.02
2018-01-19T05:53:49.760Z,78.3
2018-01-19T05:54:30.665Z,78.59
2018-01-19T05:55:11.242Z,78.88
2018-01-19T05:55:51.535Z,78.4
2018-01-19T05:56:32.043Z,78.97
2018-01-19T05:57:12.345Z,78.27
2018-01-19T05:57:52.806Z,78.55
2018-01-19T05:58:34.488Z,79.06
2018-01-19T05:59:14.916Z,79.25
2018-01-19T05:59:55.273Z,78.45
2018-01-19T06:00:35.734Z,78.83
2018-01-19T06:01:16.388Z,79.22
2018-01-19T06:03:34.398Z,80.21
2018-01-19T06:04:15.652Z,79.03
2018-01-19T06:04:56.776Z,78.4
2018-01-19T06:05:37.416Z,79.03
2018-01-19T06:06:17.634Z,79.31
2018-01-19T06:06:58.188Z,79.22
2018-01-19T06:07:38.554Z,79.54
2018-01-19T06:08:19.791Z,79.06
2018-01-19T06:09:00.233Z,79.44
2018-01-19T06:09:41.023Z,78.97
2018-01-19T06:10:21.419Z,78.4
2018-01-19T06:11:02.587Z,78.59
2018-01-19T06:11:44.214Z,78.97
2018-01-19T06:12:24.395Z,79.06
2018-01-19T06:13:05.567Z,78.11
2018-01-19T06:13:46.099Z,78.69
2018-01-19T06:15:46.117Z,78.4
2018-01-19T06:16:28.962Z,78.02
2018-01-19T06:17:09.283Z,78.3
2018-01-19T06:17:49.678Z,78.88
2018-01-19T06:18:30.482Z,77.92
2018-01-19T06:19:11.039Z,78.02
2018-01-19T06:19:51.403Z,77.92
2018-01-19T06:20:31.952Z,77.55
2018-01-19T06:21:12.252Z,78.21
2018-01-19T06:21:52.832Z,78.3
2018-01-19T06:22:33.402Z,78.4
2018-01-19T06:23:14.179Z,78.78
2018-01-19T06:23:54.616Z,78.02
2018-01-19T06:24:35.445Z,77.55
2018-01-19T06:25:15.777Z,77.64
2018-01-19T06:25:56.733Z,77.83
2018-01-19T06:26:37.242Z,77.07
2018-01-19T06:28:57.527Z,77.26
2018-01-19T06:29:39.288Z,78.3
2018-01-19T06:30:19.921Z,78.3
2018-01-19T06:31:00.380Z,78.4
2018-01-19T06:31:41.976Z,78.97
2018-01-19T06:32:22.936Z,79.06
2018-01-19T06:33:03.462Z,78.3
2018-01-19T06:33:44.193Z,78.4
2018-01-19T06:34:24.627Z,78.59
2018-01-19T06:35:06.958Z,79.06
2018-01-19T06:35:47.331Z,79.83
2018-01-19T06:36:27.803Z,79.25
2018-01-19T06:37:08.730Z,79.06
2018-01-19T06:37:49.389Z,79.06
2018-01-19T06:38:30.765Z,79.25
2018-01-19T06:39:11.319Z,78.3
2018-01-19T06:39:52.585Z,78.3
2018-01-19T06:40:33.454Z,78.4
2018-01-19T06:41:14.636Z,78.69
2018-01-19T06:41:55.264Z,78.97
2018-01-19T06:42:35.976Z,78.11
2018-01-19T06:43:16.290Z,77.36
2018-01-19T06:43:56.960Z,77.26
2018-01-19T06:44:38.206Z,77.26
2018-01-19T06:45:19.093Z,77.92
2018-01-19T06:45:59.937Z,78.5
2018-01-19T06:46:41.031Z,78.4
2018-01-19T06:47:21.262Z,77.36
2018-01-19T06:48:02.400Z,77.83
2018-01-19T06:48:42.930Z,77.83
2018-01-19T06:49:25.436Z,78.4
2018-01-19T06:50:06.758Z,78.4
2018-01-19T06:50:47.401Z,78.59
2018-01-19T06:51:28.105Z,78.59
2018-01-19T06:52:08.649Z,78.4
2018-01-19T06:52:49.502Z,78.02
2018-01-19T06:53:29.915Z,78.4
2018-01-19T06:54:10.592Z,78.4
2018-01-19T06:54:51.771Z,78.02
2018-01-19T06:55:32.268Z,78.69
2018-01-19T06:56:13.140Z,78.21
2018-01-19T06:56:54.992Z,78.5
2018-01-19T06:57:35.462Z,78.21
2018-01-19T06:58:15.863Z,78.88
2018-01-19T06:58:58.373Z,79.06
2018-01-19T06:59:39.022Z,78.08
2018-01-19T07:00:20.104Z,79.06
2018-01-19T07:01:00.554Z,78.83
2018-01-19T07:01:41.406Z,78.36
2018-01-19T07:02:21.618Z,78.83
2018-01-19T07:03:02.009Z,78.11
2018-01-19T07:03:43.299Z,78.5
2018-01-19T07:04:23.929Z,78.88
2018-01-19T07:05:04.560Z,79.06
2018-01-19T07:05:45.485Z,78.97
2018-01-19T07:06:27.455Z,78.11
2018-01-19T07:07:08.538Z,78.59
2018-01-19T07:07:48.990Z,78.88
2018-01-19T07:08:29.570Z,78.4
2018-01-19T07:09:10.061Z,78.59
2018-01-19T07:09:50.454Z,78.59
2018-01-19T07:10:31.790Z,77.92
2018-01-19T07:11:12.149Z,78.4
2018-01-19T07:11:52.688Z,78.69
2018-01-19T07:12:33.096Z,78.3
2018-01-19T07:13:13.898Z,78.69
2018-01-19T07:13:54.182Z,78.5
2018-01-19T07:14:34.986Z,78.3
2018-01-19T07:15:16.127Z,78.88
2018-01-19T07:15:56.868Z,78.4
2018-01-19T07:16:38.921Z,78.59
2018-01-19T07:17:19.922Z,78.97
2018-01-19T07:18:01.558Z,78.97
2018-01-19T07:18:42.542Z,78.59
2018-01-19T07:19:23.155Z,78.3
2018-01-19T07:20:04.990Z,78.4
2018-01-19T07:20:47.257Z,78.5
2018-01-19T07:21:27.555Z,78.11
2018-01-19T07:22:08.525Z,78.4
2018-01-19T07:22:50.844Z,78.11
2018-01-19T07:23:31.441Z,78.4
2018-01-19T07:24:11.926Z,78.88
2018-01-19T07:24:53.009Z,78.97
2018-01-19T07:25:34.668Z,78.4
2018-01-19T07:26:15.380Z,77.55
2018-01-19T07:26:55.766Z,77.55
2018-01-19T07:27:36.253Z,77.45
2018-01-19T07:28:16.629Z,77.83
2018-01-19T07:28:57.714Z,77.26
2018-01-19T07:29:39.198Z,77.26
2018-01-19T07:30:20.353Z,76.88
2018-01-19T07:31:00.878Z,77.83
2018-01-19T07:31:43.016Z,78.21
2018-01-19T07:32:23.897Z,77.73
2018-01-19T07:33:05.451Z,78.21
2018-01-19T07:33:45.700Z,78.4
2018-01-19T07:34:26.082Z,77.83
2018-01-19T07:35:06.822Z,78.21
2018-01-19T07:35:49.378Z,77.92
2018-01-19T07:36:30.391Z,77.26
2018-01-19T07:37:13.436Z,77.64
2018-01-19T07:37:53.958Z,76.97
2018-01-19T07:38:34.508Z,77.45
2018-01-19T07:39:16.387Z,77.36
2018-01-19T07:39:57.166Z,77.45
2018-01-19T07:40:37.835Z,77.92
2018-01-19T07:41:18.366Z,78.59
2018-01-19T07:41:58.793Z,79.25
2018-01-19T07:42:40.675Z,79.06
2018-01-19T07:43:22.964Z,78.3
2018-01-19T07:44:05.173Z,78.5
2018-01-19T07:44:45.757Z,78.4
2018-01-19T07:45:25.922Z,78.21
2018-01-19T07:46:07.831Z,78.02
2018-01-19T07:46:49.014Z,78.4
2018-01-19T07:47:29.617Z,78.4
2018-01-19T07:48:10.818Z,78.88
2018-01-19T07:48:51.985Z,78.3
2018-01-19T07:49:32.635Z,78.21
2018-01-19T07:50:12.985Z,78.4
2018-01-19T07:50:53.426Z,78.4
2018-01-19T07:51:35.190Z,78.5
2018-01-19T07:52:16.280Z,78.4
2018-01-19T07:52:57.133Z,78.11
2018-01-19T07:53:37.747Z,77.64
2018-01-19T07:54:18.214Z,77.83
2018-01-19T07:54:58.660Z,77.92
2018-01-19T07:55:39.082Z,78.4
2018-01-19T07:56:19.764Z,77.73
2018-01-19T07:57:00.243Z,77.55
2018-01-19T07:57:40.817Z,77.92
2018-01-19T07:58:23.662Z,77.45
2018-01-19T07:59:02.972Z,76.88
2018-01-19T07:59:43.837Z,77.26
2018-01-19T08:00:24.680Z,76.88
2018-01-19T08:01:05.050Z,77.26
2018-01-19T08:01:46.175Z,77.2
2018-01-19T08:02:27.144Z,76.92
2018-01-19T08:03:07.528Z,77.49
2018-01-19T08:03:48.058Z,76.44
2018-01-19T08:04:28.740Z,76.03
2018-01-19T08:05:09.053Z,76.21
2018-01-19T08:05:50.231Z,76.4
2018-01-19T08:06:31.779Z,76.12
2018-01-19T08:07:13.444Z,76.4
2018-01-19T08:07:54.432Z,76.59
2018-01-19T08:08:36.275Z,76.97
2018-01-19T08:09:17.986Z,76.88
2018-01-19T08:09:59.011Z,76.88
2018-01-19T08:10:39.774Z,76.88
2018-01-19T08:11:21.293Z,76.97
2018-01-19T08:12:02.201Z,76.4
2018-01-19T08:12:43.596Z,75.36
2018-01-19T08:13:24.735Z,76.69
2018-01-19T08:14:06.368Z,76.5
2018-01-19T08:14:47.757Z,76.78
2018-01-19T08:15:28.204Z,76.4
2018-01-19T08:16:09.214Z,76.4
2018-01-19T08:16:50.068Z,76.12
2018-01-19T08:17:30.641Z,75.93
2018-01-19T08:18:11.046Z,75.84
2018-01-19T08:18:51.746Z,75.84
2018-01-19T08:19:32.472Z,76.69
2018-01-19T08:20:12.770Z,77.01
2018-01-19T08:20:53.829Z,75.4
2018-01-19T08:21:35.406Z,75.4
2018-01-19T08:22:15.845Z,75.36
2018-01-19T08:22:56.530Z,75.36
2018-01-19T08:25:54.713Z,75.36
2018-01-19T08:26:46.201Z,75.17
2018-01-19T08:27:27.539Z,75.84
2018-01-19T08:28:07.864Z,75.93
2018-01-19T08:28:48.452Z,76.5
2018-01-19T08:29:29.126Z,76.25
2018-01-19T08:30:10.169Z,75.87
2018-01-19T08:30:51.618Z,75.21
2018-01-19T08:31:32.538Z,75.02
2018-01-19T08:32:12.477Z,75.11
2018-01-19T08:32:53.193Z,74.92
2018-01-19T08:33:34.002Z,74.82
2018-01-19T08:34:15.707Z,74.73
2018-01-19T08:34:56.096Z,74.54
2018-01-19T08:35:38.647Z,74.16
2018-01-19T08:36:22.477Z,74.44
2018-01-19T08:37:03.858Z,74.16
2018-01-19T08:37:44.563Z,74.44
2018-01-19T08:38:25.034Z,73.49
2018-01-19T08:39:07.227Z,74.26
2018-01-19T08:39:48.028Z,74.26
2018-01-19T08:40:28.910Z,74.03
2018-01-19T08:41:09.305Z,74.82
2018-01-19T08:41:49.728Z,74.26
2018-01-19T08:42:30.760Z,74.07
2018-01-19T08:43:11.288Z,73.69
2018-01-19T08:43:51.935Z,73.69
2018-01-19T08:44:32.268Z,73.78
2018-01-19T08:45:14.266Z,73.02
2018-01-19T08:45:53.917Z,73.49
2018-01-19T08:46:35.230Z,73.06
2018-01-19T08:47:15.879Z,72.3
2018-01-19T08:47:57.738Z,71.72
2018-01-19T08:48:37.796Z,70.39
2018-01-19T08:49:18.556Z,69.95
2018-01-19T08:49:58.957Z,69.48
2018-01-19T08:50:40.631Z,69.1
2018-01-19T08:51:24.870Z,69.57
2018-01-19T08:52:06.597Z,69.1
2018-01-19T08:52:47.205Z,69.19
2018-01-19T08:53:27.488Z,69.1
2018-01-19T08:54:07.958Z,69
2018-01-19T08:54:48.581Z,68.43
2018-01-19T08:55:29.301Z,68.43
2018-01-19T08:56:10.641Z,68.33
2018-01-19T08:56:52.557Z,68.52
2018-01-19T08:57:36.873Z,68.94
2018-01-19T08:58:19.288Z,69.32
2018-01-19T08:58:59.825Z,67.89
2018-01-19T08:59:41.405Z,66.66
2018-01-19T09:00:24.526Z,66.66
2018-01-19T09:01:05.417Z,66.78
2018-01-19T09:01:46.513Z,65.64
2018-01-19T09:02:27.312Z,64.78
2018-01-19T09:03:08.538Z,64.43
2018-01-19T09:03:49.111Z,64.43
2018-01-19T09:04:29.962Z,63.2
2018-01-19T09:05:13.306Z,63.29
2018-01-19T09:09:11.430Z,60.84
2018-01-19T09:10:02.777Z,60.3
2018-01-19T09:10:52.975Z,60.02
2018-01-19T09:11:42.972Z,59.73
2018-01-19T09:12:24.398Z,58.58
2018-01-19T09:13:07.266Z,58.77
2018-01-19T09:13:57.440Z,59.53
2018-01-19T09:14:38.025Z,59.34
2018-01-19T09:15:19.591Z,58.87
2018-01-19T09:16:04.497Z,59.06
2018-01-19T09:16:58.501Z,58.48
2018-01-19T09:17:47.541Z,58.68
2018-01-19T09:18:31.236Z,60.11
2018-01-19T09:21:00.717Z,59.6
2018-01-19T09:21:46.822Z,60.65
2018-01-19T09:22:33.032Z,60.46
2018-01-19T09:23:20.322Z,61.22
2018-01-19T09:27:05.387Z,62.15
2018-01-19T09:27:56.413Z,63.67
2018-01-19T09:30:16.754Z,65.07
2018-01-19T09:31:05.212Z,64.5
2018-01-19T09:31:54.241Z,64.59
2018-01-19T09:32:36.659Z,64.97
2018-01-19T09:33:18.642Z,64.69
2018-01-19T09:33:59.371Z,65.45
2018-01-19T09:34:40.068Z,66.21
2018-01-19T09:35:21.004Z,65.42
2018-01-19T09:36:02.041Z,65.92
2018-01-19T09:36:43.750Z,65.13
2018-01-19T09:37:23.816Z,66.59
2018-01-19T09:38:05.574Z,66.4
2018-01-19T09:38:52.060Z,64.87
2018-01-19T09:39:33.475Z,64.87
2018-01-19T09:40:14.364Z,65.26
2018-01-19T09:40:55.767Z,64.69
2018-01-19T09:41:35.478Z,64.78
2018-01-19T09:42:19.321Z,64.02
2018-01-19T09:42:59.625Z,64.69
2018-01-19T09:43:40.507Z,65.45
2018-01-19T09:44:21.629Z,64.78
2018-01-19T09:45:03.010Z,65.16